sensor_id;sensor_type;location;lat;lon;timestamp;P1;durP1;ratioP1;P2;durP2;ratioP2
74612;SDS011;63119;51.788;8.824;2023-07-31T00:00:57;2.20;;;1.17;;
74612;SDS011;63119;51.788;8.824;2023-07-31T00:03:23;2.15;;;1.50;;
74612;SDS011;63119;51.788;8.824;2023-07-31T00:05:48;2.33;;;1.00;;
74612;SDS011;63119;51.788;8.824;2023-07-31T00:08:13;2.83;;;1.07;;
74612;SDS011;63119;51.788;8.824;2023-07-31T00:10:38;1.50;;;1.00;;
74612;SDS011;63119;51.788;8.824;2023-07-31T00:13:04;2.40;;;1.33;;
74612;SDS011;63119;51.788;8.824;2023-07-31T00:15:29;3.53;;;1.60;;
74612;SDS011;63119;51.788;8.824;2023-07-31T00:17:54;3.25;;;1.55;;
74612;SDS011;63119;51.788;8.824;2023-07-31T00:20:21;3.00;;;1.70;;
74612;SDS011;63119;51.788;8.824;2023-07-31T00:22:46;4.88;;;1.48;;
74612;SDS011;63119;51.788;8.824;2023-07-31T00:25:11;5.13;;;1.70;;
74612;SDS011;63119;51.788;8.824;2023-07-31T00:27:36;5.37;;;1.73;;
74612;SDS011;63119;51.788;8.824;2023-07-31T00:30:02;3.33;;;1.43;;
74612;SDS011;63119;51.788;8.824;2023-07-31T00:32:28;6.57;;;1.85;;
74612;SDS011;63119;51.788;8.824;2023-07-31T00:34:53;3.28;;;1.48;;
74612;SDS011;63119;51.788;8.824;2023-07-31T00:37:18;4.07;;;1.60;;
74612;SDS011;63119;51.788;8.824;2023-07-31T00:39:44;3.70;;;1.80;;
74612;SDS011;63119;51.788;8.824;2023-07-31T00:42:09;3.27;;;1.87;;
74612;SDS011;63119;51.788;8.824;2023-07-31T00:44:34;4.07;;;2.00;;
74612;SDS011;63119;51.788;8.824;2023-07-31T00:46:59;4.90;;;2.10;;
74612;SDS011;63119;51.788;8.824;2023-07-31T00:49:25;3.75;;;2.28;;
74612;SDS011;63119;51.788;8.824;2023-07-31T00:51:51;3.88;;;2.25;;
74612;SDS011;63119;51.788;8.824;2023-07-31T00:54:17;5.57;;;2.42;;
74612;SDS011;63119;51.788;8.824;2023-07-31T00:56:42;3.40;;;2.22;;
74612;SDS011;63119;51.788;8.824;2023-07-31T00:59:10;3.40;;;1.80;;
74612;SDS011;63119;51.788;8.824;2023-07-31T01:01:35;4.47;;;1.95;;
74612;SDS011;63119;51.788;8.824;2023-07-31T01:04:01;7.10;;;2.30;;
74612;SDS011;63119;51.788;8.824;2023-07-31T01:09:02;5.50;;;2.42;;
74612;SDS011;63119;51.788;8.824;2023-07-31T01:11:33;4.20;;;2.50;;
74612;SDS011;63119;51.788;8.824;2023-07-31T01:14:02;5.35;;;2.45;;
74612;SDS011;63119;51.788;8.824;2023-07-31T01:16:28;4.50;;;2.75;;
74612;SDS011;63119;51.788;8.824;2023-07-31T01:18:53;4.97;;;2.70;;
74612;SDS011;63119;51.788;8.824;2023-07-31T01:24:20;4.05;;;2.20;;
74612;SDS011;63119;51.788;8.824;2023-07-31T01:26:47;3.28;;;2.10;;
74612;SDS011;63119;51.788;8.824;2023-07-31T01:32:14;4.35;;;2.30;;
74612;SDS011;63119;51.788;8.824;2023-07-31T01:34:42;3.72;;;2.20;;
74612;SDS011;63119;51.788;8.824;2023-07-31T01:37:08;3.60;;;2.55;;
74612;SDS011;63119;51.788;8.824;2023-07-31T01:39:34;3.23;;;2.20;;
74612;SDS011;63119;51.788;8.824;2023-07-31T01:41:59;3.50;;;2.10;;
74612;SDS011;63119;51.788;8.824;2023-07-31T01:44:24;4.37;;;2.00;;
74612;SDS011;63119;51.788;8.824;2023-07-31T01:46:49;2.80;;;1.87;;
74612;SDS011;63119;51.788;8.824;2023-07-31T01:49:15;3.23;;;1.80;;
74612;SDS011;63119;51.788;8.824;2023-07-31T01:51:40;2.40;;;1.40;;
74612;SDS011;63119;51.788;8.824;2023-07-31T01:54:05;1.43;;;0.90;;
74612;SDS011;63119;51.788;8.824;2023-07-31T01:56:31;3.70;;;1.63;;
74612;SDS011;63119;51.788;8.824;2023-07-31T01:58:56;1.53;;;1.13;;
74612;SDS011;63119;51.788;8.824;2023-07-31T02:01:21;1.23;;;1.00;;
74612;SDS011;63119;51.788;8.824;2023-07-31T02:03:46;2.10;;;1.00;;
74612;SDS011;63119;51.788;8.824;2023-07-31T02:06:12;1.60;;;0.90;;
74612;SDS011;63119;51.788;8.824;2023-07-31T02:08:37;2.73;;;1.37;;
74612;SDS011;63119;51.788;8.824;2023-07-31T02:11:02;2.90;;;1.20;;
74612;SDS011;63119;51.788;8.824;2023-07-31T02:13:28;2.42;;;1.20;;
74612;SDS011;63119;51.788;8.824;2023-07-31T02:15:53;1.60;;;1.10;;
74612;SDS011;63119;51.788;8.824;2023-07-31T02:18:18;1.07;;;0.83;;
74612;SDS011;63119;51.788;8.824;2023-07-31T02:20:48;2.10;;;1.17;;
74612;SDS011;63119;51.788;8.824;2023-07-31T02:23:14;1.40;;;1.00;;
74612;SDS011;63119;51.788;8.824;2023-07-31T02:25:39;1.40;;;0.97;;
74612;SDS011;63119;51.788;8.824;2023-07-31T02:28:04;3.33;;;1.30;;
74612;SDS011;63119;51.788;8.824;2023-07-31T02:30:29;1.00;;;0.90;;
74612;SDS011;63119;51.788;8.824;2023-07-31T02:32:55;3.63;;;1.00;;
74612;SDS011;63119;51.788;8.824;2023-07-31T02:35:20;2.87;;;1.10;;
74612;SDS011;63119;51.788;8.824;2023-07-31T02:37:45;2.80;;;1.40;;
74612;SDS011;63119;51.788;8.824;2023-07-31T02:40:11;1.83;;;1.03;;
74612;SDS011;63119;51.788;8.824;2023-07-31T02:42:36;2.55;;;1.20;;
74612;SDS011;63119;51.788;8.824;2023-07-31T02:45:01;2.30;;;1.17;;
74612;SDS011;63119;51.788;8.824;2023-07-31T02:47:27;2.20;;;1.00;;
74612;SDS011;63119;51.788;8.824;2023-07-31T02:49:52;1.67;;;1.00;;
74612;SDS011;63119;51.788;8.824;2023-07-31T02:52:17;2.77;;;1.17;;
74612;SDS011;63119;51.788;8.824;2023-07-31T02:54:42;1.70;;;1.00;;
74612;SDS011;63119;51.788;8.824;2023-07-31T02:57:08;2.13;;;1.30;;
74612;SDS011;63119;51.788;8.824;2023-07-31T02:59:33;2.03;;;1.17;;
74612;SDS011;63119;51.788;8.824;2023-07-31T03:01:58;2.83;;;1.60;;
74612;SDS011;63119;51.788;8.824;2023-07-31T03:04:24;2.50;;;1.47;;
74612;SDS011;63119;51.788;8.824;2023-07-31T03:06:49;2.58;;;1.60;;
74612;SDS011;63119;51.788;8.824;2023-07-31T03:09:14;4.53;;;2.10;;
74612;SDS011;63119;51.788;8.824;2023-07-31T03:11:40;4.57;;;2.30;;
74612;SDS011;63119;51.788;8.824;2023-07-31T03:14:05;3.50;;;1.87;;
74612;SDS011;63119;51.788;8.824;2023-07-31T03:16:30;4.80;;;2.37;;
74612;SDS011;63119;51.788;8.824;2023-07-31T03:18:55;8.03;;;2.70;;
74612;SDS011;63119;51.788;8.824;2023-07-31T03:21:21;4.53;;;2.67;;
74612;SDS011;63119;51.788;8.824;2023-07-31T03:23:46;6.50;;;3.10;;
74612;SDS011;63119;51.788;8.824;2023-07-31T03:26:11;8.57;;;3.03;;
74612;SDS011;63119;51.788;8.824;2023-07-31T03:28:36;7.93;;;2.90;;
74612;SDS011;63119;51.788;8.824;2023-07-31T03:31:02;9.40;;;3.30;;
74612;SDS011;63119;51.788;8.824;2023-07-31T03:33:27;7.32;;;3.35;;
74612;SDS011;63119;51.788;8.824;2023-07-31T03:35:53;8.93;;;4.28;;
74612;SDS011;63119;51.788;8.824;2023-07-31T03:38:18;13.18;;;4.22;;
74612;SDS011;63119;51.788;8.824;2023-07-31T03:40:44;9.65;;;3.97;;
74612;SDS011;63119;51.788;8.824;2023-07-31T03:43:09;9.50;;;3.30;;
74612;SDS011;63119;51.788;8.824;2023-07-31T03:45:35;9.63;;;3.35;;
74612;SDS011;63119;51.788;8.824;2023-07-31T03:48:00;8.55;;;3.60;;
74612;SDS011;63119;51.788;8.824;2023-07-31T03:50:26;7.88;;;3.38;;
74612;SDS011;63119;51.788;8.824;2023-07-31T03:52:51;7.43;;;3.20;;
74612;SDS011;63119;51.788;8.824;2023-07-31T03:55:17;6.90;;;3.63;;
74612;SDS011;63119;51.788;8.824;2023-07-31T03:57:43;9.75;;;4.15;;
74612;SDS011;63119;51.788;8.824;2023-07-31T04:00:08;13.30;;;3.63;;
74612;SDS011;63119;51.788;8.824;2023-07-31T04:02:34;9.80;;;3.78;;
74612;SDS011;63119;51.788;8.824;2023-07-31T04:04:59;8.80;;;3.30;;
74612;SDS011;63119;51.788;8.824;2023-07-31T04:07:24;6.70;;;3.07;;
74612;SDS011;63119;51.788;8.824;2023-07-31T04:09:49;11.23;;;3.50;;
74612;SDS011;63119;51.788;8.824;2023-07-31T04:12:15;7.27;;;3.40;;
74612;SDS011;63119;51.788;8.824;2023-07-31T04:14:40;9.93;;;2.90;;
74612;SDS011;63119;51.788;8.824;2023-07-31T04:17:05;8.77;;;3.67;;
74612;SDS011;63119;51.788;8.824;2023-07-31T04:19:31;17.83;;;3.90;;
74612;SDS011;63119;51.788;8.824;2023-07-31T04:21:56;7.70;;;3.30;;
74612;SDS011;63119;51.788;8.824;2023-07-31T04:24:21;7.67;;;2.93;;
74612;SDS011;63119;51.788;8.824;2023-07-31T04:29:17;9.73;;;3.58;;
74612;SDS011;63119;51.788;8.824;2023-07-31T04:31:43;6.20;;;3.13;;
74612;SDS011;63119;51.788;8.824;2023-07-31T04:34:08;10.60;;;4.13;;
74612;SDS011;63119;51.788;8.824;2023-07-31T04:36:34;8.73;;;2.57;;
74612;SDS011;63119;51.788;8.824;2023-07-31T04:39:00;8.07;;;3.25;;
74612;SDS011;63119;51.788;8.824;2023-07-31T04:41:25;9.30;;;3.30;;
74612;SDS011;63119;51.788;8.824;2023-07-31T04:43:51;10.37;;;3.57;;
74612;SDS011;63119;51.788;8.824;2023-07-31T04:46:16;8.57;;;3.63;;
74612;SDS011;63119;51.788;8.824;2023-07-31T04:48:42;11.93;;;3.33;;
74612;SDS011;63119;51.788;8.824;2023-07-31T04:51:07;8.77;;;3.65;;
74612;SDS011;63119;51.788;8.824;2023-07-31T04:53:33;7.55;;;3.22;;
74612;SDS011;63119;51.788;8.824;2023-07-31T04:55:58;8.03;;;3.43;;
74612;SDS011;63119;51.788;8.824;2023-07-31T04:58:23;9.90;;;3.03;;
74612;SDS011;63119;51.788;8.824;2023-07-31T05:00:49;7.80;;;2.83;;
74612;SDS011;63119;51.788;8.824;2023-07-31T05:03:14;8.23;;;3.37;;
74612;SDS011;63119;51.788;8.824;2023-07-31T05:05:39;9.40;;;3.10;;
74612;SDS011;63119;51.788;8.824;2023-07-31T05:08:04;6.20;;;2.70;;
74612;SDS011;63119;51.788;8.824;2023-07-31T05:10:30;9.43;;;3.20;;
74612;SDS011;63119;51.788;8.824;2023-07-31T05:12:55;7.28;;;2.83;;
74612;SDS011;63119;51.788;8.824;2023-07-31T05:15:20;12.07;;;3.40;;
74612;SDS011;63119;51.788;8.824;2023-07-31T05:17:46;7.83;;;2.80;;
74612;SDS011;63119;51.788;8.824;2023-07-31T05:20:11;7.73;;;2.70;;
74612;SDS011;63119;51.788;8.824;2023-07-31T05:22:36;7.95;;;3.15;;
74612;SDS011;63119;51.788;8.824;2023-07-31T05:25:02;8.67;;;2.97;;
74612;SDS011;63119;51.788;8.824;2023-07-31T05:27:27;9.68;;;3.35;;
74612;SDS011;63119;51.788;8.824;2023-07-31T05:29:53;6.50;;;3.27;;
74612;SDS011;63119;51.788;8.824;2023-07-31T05:32:18;9.35;;;2.63;;
74612;SDS011;63119;51.788;8.824;2023-07-31T05:34:43;7.70;;;3.07;;
74612;SDS011;63119;51.788;8.824;2023-07-31T05:37:09;6.93;;;3.00;;
74612;SDS011;63119;51.788;8.824;2023-07-31T05:39:36;9.80;;;3.38;;
74612;SDS011;63119;51.788;8.824;2023-07-31T05:42:01;7.10;;;3.03;;
74612;SDS011;63119;51.788;8.824;2023-07-31T05:44:26;10.50;;;3.43;;
74612;SDS011;63119;51.788;8.824;2023-07-31T05:46:51;7.33;;;2.90;;
74612;SDS011;63119;51.788;8.824;2023-07-31T05:49:17;8.20;;;3.13;;
74612;SDS011;63119;51.788;8.824;2023-07-31T05:51:42;11.50;;;3.30;;
74612;SDS011;63119;51.788;8.824;2023-07-31T05:54:07;8.25;;;3.50;;
74612;SDS011;63119;51.788;8.824;2023-07-31T05:56:32;7.27;;;3.37;;
74612;SDS011;63119;51.788;8.824;2023-07-31T05:58:59;11.20;;;3.30;;
74612;SDS011;63119;51.788;8.824;2023-07-31T06:01:24;5.83;;;3.30;;
74612;SDS011;63119;51.788;8.824;2023-07-31T06:03:49;7.00;;;3.10;;
74612;SDS011;63119;51.788;8.824;2023-07-31T06:06:15;10.70;;;3.30;;
74612;SDS011;63119;51.788;8.824;2023-07-31T06:08:40;8.73;;;3.30;;
74612;SDS011;63119;51.788;8.824;2023-07-31T06:11:05;10.07;;;3.80;;
74612;SDS011;63119;51.788;8.824;2023-07-31T06:13:33;11.38;;;3.15;;
74612;SDS011;63119;51.788;8.824;2023-07-31T06:15:58;13.47;;;3.40;;
74612;SDS011;63119;51.788;8.824;2023-07-31T06:18:24;9.77;;;4.15;;
74612;SDS011;63119;51.788;8.824;2023-07-31T06:20:49;12.97;;;3.87;;
74612;SDS011;63119;51.788;8.824;2023-07-31T06:23:18;10.40;;;3.38;;
74612;SDS011;63119;51.788;8.824;2023-07-31T06:25:44;6.80;;;3.08;;
74612;SDS011;63119;51.788;8.824;2023-07-31T06:28:09;11.00;;;2.90;;
74612;SDS011;63119;51.788;8.824;2023-07-31T06:30:34;9.70;;;3.10;;
74612;SDS011;63119;51.788;8.824;2023-07-31T06:32:59;7.80;;;3.40;;
74612;SDS011;63119;51.788;8.824;2023-07-31T06:35:25;11.60;;;3.67;;
74612;SDS011;63119;51.788;8.824;2023-07-31T06:37:50;8.77;;;3.33;;
74612;SDS011;63119;51.788;8.824;2023-07-31T06:40:16;10.70;;;3.22;;
74612;SDS011;63119;51.788;8.824;2023-07-31T06:42:41;6.97;;;3.25;;
74612;SDS011;63119;51.788;8.824;2023-07-31T06:45:07;8.23;;;2.80;;
74612;SDS011;63119;51.788;8.824;2023-07-31T06:47:32;8.57;;;2.88;;
74612;SDS011;63119;51.788;8.824;2023-07-31T06:49:58;8.43;;;2.93;;
74612;SDS011;63119;51.788;8.824;2023-07-31T06:52:23;6.23;;;2.73;;
74612;SDS011;63119;51.788;8.824;2023-07-31T06:55:00;9.87;;;3.17;;
74612;SDS011;63119;51.788;8.824;2023-07-31T06:57:29;7.32;;;2.85;;
74612;SDS011;63119;51.788;8.824;2023-07-31T06:59:54;5.53;;;2.63;;
74612;SDS011;63119;51.788;8.824;2023-07-31T07:02:20;6.85;;;2.88;;
74612;SDS011;63119;51.788;8.824;2023-07-31T07:04:45;8.70;;;2.73;;
74612;SDS011;63119;51.788;8.824;2023-07-31T07:07:11;6.47;;;2.92;;
74612;SDS011;63119;51.788;8.824;2023-07-31T07:09:36;11.60;;;3.57;;
74612;SDS011;63119;51.788;8.824;2023-07-31T07:12:01;10.33;;;3.50;;
74612;SDS011;63119;51.788;8.824;2023-07-31T07:14:27;8.60;;;3.45;;
74612;SDS011;63119;51.788;8.824;2023-07-31T07:16:52;7.53;;;3.00;;
74612;SDS011;63119;51.788;8.824;2023-07-31T07:19:17;9.03;;;3.53;;
74612;SDS011;63119;51.788;8.824;2023-07-31T07:21:43;8.47;;;3.60;;
74612;SDS011;63119;51.788;8.824;2023-07-31T07:24:08;9.30;;;3.57;;
74612;SDS011;63119;51.788;8.824;2023-07-31T07:26:33;7.70;;;3.00;;
74612;SDS011;63119;51.788;8.824;2023-07-31T07:28:58;9.70;;;3.77;;
74612;SDS011;63119;51.788;8.824;2023-07-31T07:31:26;12.30;;;3.38;;
74612;SDS011;63119;51.788;8.824;2023-07-31T07:33:51;9.30;;;3.73;;
74612;SDS011;63119;51.788;8.824;2023-07-31T07:36:16;10.67;;;3.80;;
74612;SDS011;63119;51.788;8.824;2023-07-31T07:38:42;9.13;;;3.77;;
74612;SDS011;63119;51.788;8.824;2023-07-31T07:41:07;10.40;;;3.53;;
74612;SDS011;63119;51.788;8.824;2023-07-31T07:43:32;11.63;;;3.60;;
74612;SDS011;63119;51.788;8.824;2023-07-31T07:45:57;6.43;;;3.90;;
74612;SDS011;63119;51.788;8.824;2023-07-31T07:48:23;7.93;;;3.30;;
74612;SDS011;63119;51.788;8.824;2023-07-31T07:50:48;10.50;;;3.63;;
74612;SDS011;63119;51.788;8.824;2023-07-31T07:53:14;10.93;;;4.82;;
74612;SDS011;63119;51.788;8.824;2023-07-31T07:55:39;7.53;;;3.83;;
74612;SDS011;63119;51.788;8.824;2023-07-31T07:58:04;10.63;;;4.17;;
74612;SDS011;63119;51.788;8.824;2023-07-31T08:00:29;10.80;;;3.87;;
74612;SDS011;63119;51.788;8.824;2023-07-31T08:02:55;7.40;;;3.70;;
74612;SDS011;63119;51.788;8.824;2023-07-31T08:05:22;13.93;;;4.72;;
74612;SDS011;63119;51.788;8.824;2023-07-31T08:07:47;7.97;;;3.77;;
74612;SDS011;63119;51.788;8.824;2023-07-31T08:10:12;10.63;;;4.53;;
74612;SDS011;63119;51.788;8.824;2023-07-31T08:12:38;6.67;;;3.80;;
74612;SDS011;63119;51.788;8.824;2023-07-31T08:15:03;12.27;;;3.97;;
74612;SDS011;63119;51.788;8.824;2023-07-31T08:17:29;9.18;;;3.58;;
74612;SDS011;63119;51.788;8.824;2023-07-31T08:19:54;11.37;;;4.50;;
74612;SDS011;63119;51.788;8.824;2023-07-31T08:22:19;13.47;;;5.27;;
74612;SDS011;63119;51.788;8.824;2023-07-31T08:24:44;9.83;;;4.63;;
74612;SDS011;63119;51.788;8.824;2023-07-31T08:27:10;10.40;;;4.27;;
74612;SDS011;63119;51.788;8.824;2023-07-31T08:29:36;13.05;;;4.78;;
74612;SDS011;63119;51.788;8.824;2023-07-31T08:32:01;10.43;;;5.03;;
74612;SDS011;63119;51.788;8.824;2023-07-31T08:34:26;9.43;;;4.60;;
74612;SDS011;63119;51.788;8.824;2023-07-31T08:36:52;16.20;;;5.50;;
74612;SDS011;63119;51.788;8.824;2023-07-31T08:39:17;12.23;;;4.97;;
74612;SDS011;63119;51.788;8.824;2023-07-31T08:41:42;8.03;;;4.23;;
74612;SDS011;63119;51.788;8.824;2023-07-31T08:44:07;9.32;;;4.25;;
74612;SDS011;63119;51.788;8.824;2023-07-31T08:46:33;12.43;;;4.63;;
74612;SDS011;63119;51.788;8.824;2023-07-31T08:48:59;10.10;;;5.05;;
74612;SDS011;63119;51.788;8.824;2023-07-31T08:53:52;10.87;;;5.07;;
74612;SDS011;63119;51.788;8.824;2023-07-31T08:56:18;7.60;;;4.22;;
74612;SDS011;63119;51.788;8.824;2023-07-31T08:58:44;12.00;;;4.65;;
74612;SDS011;63119;51.788;8.824;2023-07-31T09:01:12;12.18;;;4.78;;
74612;SDS011;63119;51.788;8.824;2023-07-31T09:03:38;8.75;;;4.18;;
74612;SDS011;63119;51.788;8.824;2023-07-31T09:06:05;10.40;;;4.65;;
74612;SDS011;63119;51.788;8.824;2023-07-31T09:08:31;7.65;;;4.35;;
74612;SDS011;63119;51.788;8.824;2023-07-31T09:10:59;8.90;;;4.13;;
74612;SDS011;63119;51.788;8.824;2023-07-31T09:13:27;9.40;;;4.95;;
74612;SDS011;63119;51.788;8.824;2023-07-31T09:15:53;8.10;;;4.53;;
74612;SDS011;63119;51.788;8.824;2023-07-31T09:18:18;8.47;;;4.93;;
74612;SDS011;63119;51.788;8.824;2023-07-31T09:20:51;9.75;;;4.85;;
74612;SDS011;63119;51.788;8.824;2023-07-31T09:23:25;9.80;;;4.30;;
74612;SDS011;63119;51.788;8.824;2023-07-31T09:25:50;7.90;;;3.70;;
74612;SDS011;63119;51.788;8.824;2023-07-31T09:28:16;7.30;;;4.20;;
74612;SDS011;63119;51.788;8.824;2023-07-31T09:30:50;9.17;;;3.70;;
74612;SDS011;63119;51.788;8.824;2023-07-31T09:33:17;9.75;;;4.55;;
74612;SDS011;63119;51.788;8.824;2023-07-31T09:35:43;9.18;;;4.60;;
74612;SDS011;63119;51.788;8.824;2023-07-31T09:38:12;9.07;;;4.13;;
74612;SDS011;63119;51.788;8.824;2023-07-31T09:40:42;7.50;;;3.95;;
74612;SDS011;63119;51.788;8.824;2023-07-31T09:43:10;7.22;;;3.70;;
74612;SDS011;63119;51.788;8.824;2023-07-31T09:45:37;8.90;;;3.42;;
74612;SDS011;63119;51.788;8.824;2023-07-31T09:48:08;6.40;;;3.22;;
74612;SDS011;63119;51.788;8.824;2023-07-31T09:50:36;7.75;;;3.38;;
74612;SDS011;63119;51.788;8.824;2023-07-31T09:53:03;7.82;;;3.60;;
74612;SDS011;63119;51.788;8.824;2023-07-31T09:55:29;6.30;;;3.40;;
74612;SDS011;63119;51.788;8.824;2023-07-31T09:57:56;6.82;;;3.00;;
74612;SDS011;63119;51.788;8.824;2023-07-31T10:00:22;7.15;;;2.97;;
74612;SDS011;63119;51.788;8.824;2023-07-31T10:02:50;5.47;;;2.95;;
74612;SDS011;63119;51.788;8.824;2023-07-31T10:05:16;6.32;;;2.88;;
74612;SDS011;63119;51.788;8.824;2023-07-31T10:07:54;5.88;;;3.20;;
74612;SDS011;63119;51.788;8.824;2023-07-31T10:10:23;7.40;;;3.33;;
74612;SDS011;63119;51.788;8.824;2023-07-31T10:12:49;5.05;;;2.63;;
74612;SDS011;63119;51.788;8.824;2023-07-31T10:15:17;8.13;;;2.95;;
74612;SDS011;63119;51.788;8.824;2023-07-31T10:17:43;4.55;;;2.65;;
74612;SDS011;63119;51.788;8.824;2023-07-31T10:20:09;4.82;;;2.50;;
74612;SDS011;63119;51.788;8.824;2023-07-31T10:22:35;5.45;;;2.60;;
74612;SDS011;63119;51.788;8.824;2023-07-31T10:25:01;6.30;;;2.72;;
74612;SDS011;63119;51.788;8.824;2023-07-31T10:27:27;3.90;;;2.20;;
74612;SDS011;63119;51.788;8.824;2023-07-31T10:29:54;15.07;;;3.50;;
74612;SDS011;63119;51.788;8.824;2023-07-31T10:32:20;5.20;;;2.88;;
74612;SDS011;63119;51.788;8.824;2023-07-31T10:34:47;4.72;;;2.22;;
74612;SDS011;63119;51.788;8.824;2023-07-31T10:37:30;4.03;;;2.20;;
74612;SDS011;63119;51.788;8.824;2023-07-31T10:40:23;6.53;;;2.55;;
74612;SDS011;63119;51.788;8.824;2023-07-31T10:42:56;3.20;;;2.10;;
74612;SDS011;63119;51.788;8.824;2023-07-31T10:48:12;7.38;;;2.22;;
74612;SDS011;63119;51.788;8.824;2023-07-31T10:50:46;3.90;;;2.00;;
74612;SDS011;63119;51.788;8.824;2023-07-31T10:55:49;4.57;;;2.15;;
74612;SDS011;63119;51.788;8.824;2023-07-31T10:58:17;4.10;;;2.35;;
74612;SDS011;63119;51.788;8.824;2023-07-31T11:00:44;6.47;;;2.40;;
74612;SDS011;63119;51.788;8.824;2023-07-31T11:03:13;5.95;;;2.13;;
74612;SDS011;63119;51.788;8.824;2023-07-31T11:08:10;3.40;;;2.28;;
74612;SDS011;63119;51.788;8.824;2023-07-31T11:10:39;3.72;;;2.10;;
74612;SDS011;63119;51.788;8.824;2023-07-31T11:13:05;4.60;;;2.30;;
74612;SDS011;63119;51.788;8.824;2023-07-31T11:15:30;3.70;;;2.17;;
74612;SDS011;63119;51.788;8.824;2023-07-31T11:17:56;3.35;;;1.75;;
74612;SDS011;63119;51.788;8.824;2023-07-31T11:20:23;4.03;;;1.88;;
74612;SDS011;63119;51.788;8.824;2023-07-31T11:22:49;2.75;;;1.60;;
74612;SDS011;63119;51.788;8.824;2023-07-31T11:25:14;3.25;;;1.60;;
74612;SDS011;63119;51.788;8.824;2023-07-31T11:27:39;7.60;;;1.93;;
74612;SDS011;63119;51.788;8.824;2023-07-31T11:30:08;3.13;;;1.90;;
74612;SDS011;63119;51.788;8.824;2023-07-31T11:32:36;3.97;;;2.63;;
74612;SDS011;63119;51.788;8.824;2023-07-31T11:35:02;3.78;;;1.92;;
74612;SDS011;63119;51.788;8.824;2023-07-31T11:37:38;2.60;;;1.50;;
74612;SDS011;63119;51.788;8.824;2023-07-31T11:40:04;4.18;;;1.65;;
74612;SDS011;63119;51.788;8.824;2023-07-31T11:42:30;2.55;;;1.50;;
74612;SDS011;63119;51.788;8.824;2023-07-31T11:44:55;3.23;;;1.20;;
74612;SDS011;63119;51.788;8.824;2023-07-31T11:47:20;1.83;;;1.10;;
74612;SDS011;63119;51.788;8.824;2023-07-31T11:49:46;4.13;;;1.20;;
74612;SDS011;63119;51.788;8.824;2023-07-31T11:52:12;2.88;;;1.50;;
74612;SDS011;63119;51.788;8.824;2023-07-31T11:54:39;2.70;;;1.30;;
74612;SDS011;63119;51.788;8.824;2023-07-31T11:57:05;2.20;;;1.40;;
74612;SDS011;63119;51.788;8.824;2023-07-31T11:59:31;2.17;;;1.40;;
74612;SDS011;63119;51.788;8.824;2023-07-31T12:01:57;2.25;;;1.30;;
74612;SDS011;63119;51.788;8.824;2023-07-31T12:04:23;3.40;;;1.00;;
74612;SDS011;63119;51.788;8.824;2023-07-31T12:06:49;1.58;;;0.90;;
74612;SDS011;63119;51.788;8.824;2023-07-31T12:09:15;1.83;;;0.98;;
74612;SDS011;63119;51.788;8.824;2023-07-31T12:11:44;2.85;;;1.10;;
74612;SDS011;63119;51.788;8.824;2023-07-31T12:14:25;2.53;;;1.20;;
74612;SDS011;63119;51.788;8.824;2023-07-31T12:16:58;2.35;;;1.02;;
74612;SDS011;63119;51.788;8.824;2023-07-31T12:19:25;1.42;;;0.70;;
74612;SDS011;63119;51.788;8.824;2023-07-31T12:21:55;2.40;;;0.98;;
74612;SDS011;63119;51.788;8.824;2023-07-31T12:24:20;2.15;;;0.90;;
74612;SDS011;63119;51.788;8.824;2023-07-31T12:26:46;2.65;;;1.33;;
74612;SDS011;63119;51.788;8.824;2023-07-31T12:29:12;1.40;;;0.82;;
74612;SDS011;63119;51.788;8.824;2023-07-31T12:31:37;1.13;;;0.97;;
74612;SDS011;63119;51.788;8.824;2023-07-31T12:34:14;1.90;;;0.98;;
74612;SDS011;63119;51.788;8.824;2023-07-31T12:36:41;1.85;;;1.00;;
74612;SDS011;63119;51.788;8.824;2023-07-31T12:39:07;2.20;;;0.80;;
74612;SDS011;63119;51.788;8.824;2023-07-31T12:41:33;1.45;;;0.75;;
74612;SDS011;63119;51.788;8.824;2023-07-31T12:43:58;2.00;;;0.97;;
74612;SDS011;63119;51.788;8.824;2023-07-31T12:46:23;4.33;;;1.40;;
74612;SDS011;63119;51.788;8.824;2023-07-31T12:48:48;2.07;;;0.90;;
74612;SDS011;63119;51.788;8.824;2023-07-31T12:51:14;3.33;;;1.17;;
74612;SDS011;63119;51.788;8.824;2023-07-31T12:53:39;1.77;;;0.93;;
74612;SDS011;63119;51.788;8.824;2023-07-31T12:56:04;1.93;;;0.90;;
74612;SDS011;63119;51.788;8.824;2023-07-31T12:58:30;1.80;;;1.10;;
74612;SDS011;63119;51.788;8.824;2023-07-31T13:00:55;1.70;;;0.90;;
74612;SDS011;63119;51.788;8.824;2023-07-31T13:03:20;2.45;;;1.30;;
74612;SDS011;63119;51.788;8.824;2023-07-31T13:05:46;2.17;;;1.17;;
74612;SDS011;63119;51.788;8.824;2023-07-31T13:08:11;2.20;;;1.50;;
74612;SDS011;63119;51.788;8.824;2023-07-31T13:10:36;3.90;;;1.50;;
74612;SDS011;63119;51.788;8.824;2023-07-31T13:13:02;3.33;;;1.70;;
74612;SDS011;63119;51.788;8.824;2023-07-31T13:15:27;2.87;;;1.97;;
74612;SDS011;63119;51.788;8.824;2023-07-31T13:17:52;2.95;;;1.90;;
74612;SDS011;63119;51.788;8.824;2023-07-31T13:20:18;4.07;;;1.60;;
74612;SDS011;63119;51.788;8.824;2023-07-31T13:22:43;4.00;;;1.80;;
74612;SDS011;63119;51.788;8.824;2023-07-31T13:25:08;7.77;;;2.40;;
74612;SDS011;63119;51.788;8.824;2023-07-31T13:27:34;3.00;;;1.70;;
74612;SDS011;63119;51.788;8.824;2023-07-31T13:30:00;3.55;;;1.95;;
74612;SDS011;63119;51.788;8.824;2023-07-31T13:32:25;3.53;;;1.73;;
74612;SDS011;63119;51.788;8.824;2023-07-31T13:34:51;4.15;;;1.70;;
74612;SDS011;63119;51.788;8.824;2023-07-31T13:37:16;3.47;;;2.15;;
74612;SDS011;63119;51.788;8.824;2023-07-31T13:39:41;2.80;;;1.60;;
74612;SDS011;63119;51.788;8.824;2023-07-31T13:42:08;3.80;;;1.77;;
74612;SDS011;63119;51.788;8.824;2023-07-31T13:44:36;2.80;;;1.55;;
74612;SDS011;63119;51.788;8.824;2023-07-31T13:47:02;3.17;;;2.05;;
74612;SDS011;63119;51.788;8.824;2023-07-31T13:49:28;2.15;;;1.50;;
74612;SDS011;63119;51.788;8.824;2023-07-31T13:51:54;3.00;;;1.85;;
74612;SDS011;63119;51.788;8.824;2023-07-31T13:54:19;5.00;;;2.60;;
74612;SDS011;63119;51.788;8.824;2023-07-31T13:56:44;3.10;;;1.63;;
74612;SDS011;63119;51.788;8.824;2023-07-31T13:59:10;3.30;;;1.85;;
74612;SDS011;63119;51.788;8.824;2023-07-31T14:01:36;2.80;;;1.48;;
74612;SDS011;63119;51.788;8.824;2023-07-31T14:04:01;2.70;;;1.73;;
74612;SDS011;63119;51.788;8.824;2023-07-31T14:06:27;1.83;;;1.40;;
74612;SDS011;63119;51.788;8.824;2023-07-31T14:08:52;2.67;;;1.60;;
74612;SDS011;63119;51.788;8.824;2023-07-31T14:11:17;4.83;;;1.63;;
74612;SDS011;63119;51.788;8.824;2023-07-31T14:13:42;4.10;;;1.47;;
74612;SDS011;63119;51.788;8.824;2023-07-31T14:16:08;3.10;;;1.73;;
74612;SDS011;63119;51.788;8.824;2023-07-31T14:18:33;2.40;;;1.40;;
74612;SDS011;63119;51.788;8.824;2023-07-31T14:20:59;2.28;;;1.30;;
74612;SDS011;63119;51.788;8.824;2023-07-31T14:23:24;2.50;;;1.40;;
74612;SDS011;63119;51.788;8.824;2023-07-31T14:25:49;1.77;;;1.20;;
74612;SDS011;63119;51.788;8.824;2023-07-31T14:28:14;3.57;;;1.67;;
74612;SDS011;63119;51.788;8.824;2023-07-31T14:30:40;2.13;;;1.13;;
74612;SDS011;63119;51.788;8.824;2023-07-31T14:33:05;3.10;;;1.33;;
74612;SDS011;63119;51.788;8.824;2023-07-31T14:35:30;2.37;;;1.43;;
74612;SDS011;63119;51.788;8.824;2023-07-31T14:37:56;3.77;;;1.60;;
74612;SDS011;63119;51.788;8.824;2023-07-31T14:40:21;1.70;;;1.30;;
74612;SDS011;63119;51.788;8.824;2023-07-31T14:42:46;6.87;;;2.00;;
74612;SDS011;63119;51.788;8.824;2023-07-31T14:45:11;3.10;;;1.33;;
74612;SDS011;63119;51.788;8.824;2023-07-31T14:47:37;3.17;;;1.80;;
74612;SDS011;63119;51.788;8.824;2023-07-31T14:50:02;4.67;;;1.60;;
74612;SDS011;63119;51.788;8.824;2023-07-31T14:52:28;3.70;;;2.10;;
74612;SDS011;63119;51.788;8.824;2023-07-31T14:54:54;2.10;;;1.30;;
74612;SDS011;63119;51.788;8.824;2023-07-31T14:57:19;3.88;;;2.00;;
74612;SDS011;63119;51.788;8.824;2023-07-31T14:59:45;6.13;;;1.83;;